Tiempo atmosférico en la estación meteorológica de San Bartolome Tirajana, El Matorral, Las Palmas (41 m.)



Fecha
DESCASC
Temp. máxima en grados centígrados (hora)
DESCASC
Temp. mínima en grados centígrados (hora)
DESCASC
Temp. media en grados centígrados
DESCASC
Racha de viento máxima en m/sg (hora)
DESCASC
Velocidad máxima media en intervalos de 10 minutos(hora)
DESCASC
Precipitaciones diarias en mm
DESCASC
Precipitaciones de 00:00 a 06:00 en mm
DESCASC
Precipitaciones de 06:00 a 12:00 en mm
DESCASC
Precipitaciones de 12:00 a 18:00 en mm
DESCASC
Precipitaciones de 18:00 a 24:00 en mm
DESCASC
16-06-2019 23.9 (14:40) 15.9 (07:10) 19.9 9.44 (15:30) 5.83 (15:50) 0 0 0 0 0
15-06-2019 23.4 (13:30) 17.6 (04:50) 20.5 9.17 (13:20) 5.28 (11:00) 0 0 0 0 0
14-06-2019 23.6 (11:20) 17.2 (07:10) 20.4 10 (18:00) 6.11 (14:30) 0 0 0 0 0
13-06-2019 25 (13:20) 18.4 (00:00) 21.7 10.56 (19:00) 6.67 (01:00) 0 0 0 0 0
12-06-2019 25 (17:20) 18.5 (00:00) 21.8 14.17 (12:00) 8.61 (11:00) 0 0 0 0 0
11-06-2019 25.2 (14:50) 19 (00:00) 22.1 18.89 (09:50) 11.39 (15:00) 0 0 0 0 0
10-06-2019 25.5 (15:00) 18.4 (00:00) 21.9 17.78 (18:50) 11.11 (15:20) 0 0 0 0 0
09-06-2019 24.2 (14:20) 18.8 (00:00) 21.5 18.33 (16:40) 11.39 (20:50) 0 0 0 0 0
08-06-2019 24.8 (13:50) 18.8 (00:00) 21.8 15.28 (19:00) 9.44 (20:00) 0 0 0 0 0
07-06-2019 25.6 (16:10) 17.6 (00:00) 21.6 16.67 (17:10) 9.72 (12:00) 0 0 0 0 0
06-06-2019 24.6 (13:30) 18.7 (00:00) 21.7 16.94 (22:00) 9.72 (15:50) 0 0 0 0 0
05-06-2019 25.7 (14:50) 19.8 (00:00) 22.8 16.39 (08:30) 9.72 (13:20) 0 0 0 0 0
04-06-2019 30.1 (12:20) 19.9 (00:00) 25 15.28 (12:40) 8.61 (11:20) 0 0 0 0 0
03-06-2019 32.2 (13:40) 18 (00:00) 25.1 14.17 (13:20) 9.17 (14:30) 0 0 0 0 0
02-06-2019 28.6 (13:40) 17.1 (00:00) 22.9 7.5 (12:40) 5 (12:10) 0 0 0 0 0
01-06-2019 25.4 (15:00) 17.3 (00:00) 21.3 10.28 (10:20) 6.39 (10:30) 0 0 0 0 0
31-05-2019 27.6 (16:30) 15.4 (00:00) 21.5 7.5 (14:30) 4.44 (15:30) 0 0 0 0 0
30-05-2019 26.4 (15:20) 16.2 (00:00) 21.3 10.56 (13:50) 6.39 (14:40) 0 0 0 0 0
29-05-2019 26.3 (15:20) 16.3 (00:00) 21.3 9.72 (17:10) 5.83 (17:10) 0 0 0 0 0
28-05-2019 26.2 (14:20) 16.9 (00:00) 21.6 12.5 (16:30) 7.5 (17:30) 0 0 0 0 0
27-05-2019 30.5 (13:40) 16 (00:00) 23.3 14.44 (16:40) 8.06 (16:50) 0 0 0 0 0
26-05-2019 27.7 (14:30) 16.6 (00:00) 22.2 10.28 (14:40) 6.39 (14:40) 0 0 0 0 0
25-05-2019 25.1 (16:00) 18.5 (00:00) 21.8 18.33 (11:30) 10.83 (12:40) 0 0 0 0 0
24-05-2019 29 (14:50) 17.7 (00:00) 23.4 18.06 (13:00) 11.67 (11:50) 0 0 0 0 0
23-05-2019 25.9 (16:10) 19.2 (00:00) 22.6 19.72 (06:30) 12.78 (12:40) 0 0 0 0 0
22-05-2019 25.4 (15:20) 18.7 (00:00) 22.1 18.61 (17:50) 11.94 (17:50) 0 0 0 0 0
21-05-2019 25.2 (16:20) 18.2 (06:40) 21.7 15.83 (14:50) 8.89 (15:00) 0 0 0 0 0

Gráficas

Temp. máximas Temp. mínimas Temp. medias Precipitaciones Rachas de viento máximas Velocidades máximas media en intervalos de 10 minutos

Datos horarios

Fecha y hora oficial Temperatura (ºC) Velocidad del viento (km/h) Dirección del viento Racha (km/h) Dirección de racha Precipitación (mm) Presión (hPa) Tendencia (hPa) Humedad (%)
2019-06-19 23:00:00 20.3 9 Sur 14 Sur 0 -- -- 89
2019-06-19 22:00:00 21.1 9 Sur 21 Sur 0 -- -- 83
2019-06-19 21:00:00 22.8 9 Sur 29 Nordeste 0 -- -- 72
2019-06-19 20:00:00 23.4 17 Nordeste 30 Nordeste 0 -- -- 64
2019-06-19 19:00:00 24.4 19 Nordeste 38 Nordeste 0 -- -- 63
2019-06-19 18:00:00 25.4 21 Nordeste 42 Nordeste 0 -- -- 56
2019-06-19 17:00:00 25 20 Nordeste 40 Este 0 -- -- 60
2019-06-19 16:00:00 24.5 21 Nordeste 37 Nordeste 0 -- -- 67
2019-06-19 15:00:00 23.9 21 Nordeste 32 Nordeste 0 -- -- 66
2019-06-19 14:00:00 22.9 17 Este 29 Este 0 -- -- 73
2019-06-19 13:00:00 23.5 16 Este 32 Este 0 -- -- 71
2019-06-19 12:00:00 24.2 20 Nordeste 32 Nordeste 0 -- -- 68
2019-06-19 11:00:00 24.9 18 Nordeste 32 Nordeste 0 -- -- 65
2019-06-19 10:00:00 24.5 16 Nordeste 27 Norte 0 -- -- 66
2019-06-19 09:00:00 22.2 8 Norte 18 Nordeste 0 -- -- 69
2019-06-19 08:00:00 21.4 5 Nordeste 10 Nordeste 0 -- -- 77
2019-06-19 07:00:00 19.9 0 Calma 3 Norte 0 -- -- 90
2019-06-19 06:00:00 19.2 0 Calma -- -- 0 -- -- 90
2019-06-19 05:00:00 19.2 0 Calma -- -- 0 -- -- 90
2019-06-19 04:00:00 19.6 0 Calma 4 Sudoeste 0 -- -- 88
2019-06-19 03:00:00 20 0 Calma 3 Sur 0 -- -- 87
2019-06-19 02:00:00 20.8 3 Sur 5 Sur 0 -- -- 86
2019-06-19 01:00:00 21.1 4 Sur 6 Sur 0 -- -- 84
2019-06-19 00:00:00 21.4 3 Sur 8 Sur 0 -- -- 82
2019-06-18 23:00:00 21.6 6 Sur 10 Sur 0 -- -- 80
2019-06-18 22:00:00 21.8 5 Sur 9 Sudoeste 0 -- -- 78
2019-06-18 21:00:00 22.2 6 Sudoeste 12 Sudoeste 0 -- -- 76
2019-06-18 20:00:00 22.9 6 Sur 10 Sudoeste 0 -- -- 73
2019-06-18 19:00:00 23.8 6 Sur 13 Sur 0 -- -- 70
2019-06-18 18:00:00 24.8 8 Sur 16 Sur 0 -- -- 65
2019-06-18 17:00:00 25.4 10 Sur 18 Sur 0 -- -- 64
2019-06-18 16:00:00 -- -- -- -- -- -- -- -- --
2019-06-18 15:00:00 25.2 11 Sudeste 19 Sur 0 -- -- 65
2019-06-18 14:00:00 25.8 13 Sudeste 21 Sur 0 -- -- 62
2019-06-18 13:00:00 25.8 12 Sur 21 Sur 0 -- -- 62
2019-06-18 12:00:00 25.3 12 Este 22 Este 0 -- -- 63
2019-06-18 11:00:00 24.4 13 Este 21 Nordeste 0 -- -- 64
2019-06-18 10:00:00 23.7 9 Este 16 Este 0 -- -- 64
2019-06-18 09:00:00 22.4 4 Nordeste 8 Nordeste 0 -- -- 68
2019-06-18 08:00:00 19.8 5 Norte 7 Norte 0 -- -- 77
2019-06-18 07:00:00 17.8 6 Noroeste 8 Noroeste 0 -- -- 83
2019-06-18 06:00:00 18 6 Norte 9 Norte 0 -- -- 82
2019-06-18 05:00:00 18.4 6 Norte 8 Norte 0 -- -- 81
2019-06-18 04:00:00 18.8 3 Norte 10 Nordeste 0 -- -- 81
2019-06-18 03:00:00 19.5 6 Norte 10 Nordeste 0 -- -- 81
2019-06-18 02:00:00 19.3 5 Nordeste 8 Nordeste 0 -- -- 82
2019-06-18 01:00:00 20 5 Norte 8 Norte 0 -- -- 84
2019-06-18 00:00:00 20.5 4 Sudoeste 13 Sudoeste 0 -- -- 86
2019-06-17 23:00:00 20.7 9 Sudoeste 17 Sudoeste 0 -- -- 86
2019-06-17 22:00:00 20.8 10 Sudoeste 17 Sudoeste 0 -- -- 84
2019-06-17 21:00:00 20.8 8 Sur 17 Sur 0 -- -- 81
2019-06-17 20:00:00 23.1 8 Sur 18 Sur 0 -- -- 70
2019-06-17 19:00:00 23.3 12 Sur 19 Sur 0 -- -- 68
2019-06-17 18:00:00 24.7 9 Sur 22 Sur 0 -- -- 63
2019-06-17 17:00:00 24.2 13 Sur 22 Sur 0 -- -- 65
2019-06-17 16:00:00 25 12 Sur 22 Sur 0 -- -- 60
2019-06-17 15:00:00 24.8 12 Sur 22 Sur 0 -- -- 61
2019-06-17 14:00:00 25 10 Sur 21 Sur 0 -- -- 59
2019-06-17 13:00:00 24.5 11 Sudeste 20 Sur 0 -- -- 59
2019-06-17 12:00:00 24.1 10 Sudeste 24 Este 0 -- -- 60
2019-06-17 11:00:00 23.5 9 Sur 17 Sudeste 0 -- -- 61
2019-06-17 10:00:00 22.7 6 Sudeste 13 Sudeste 0 -- -- 61
2019-06-17 09:00:00 21.1 4 Nordeste 9 Norte 0 -- -- 66
2019-06-17 08:00:00 19.4 5 Norte 10 Norte 0 -- -- 71
2019-06-17 07:00:00 18.2 5 Norte 11 Norte 0 -- -- 74
2019-06-17 06:00:00 18 3 Norte 9 Norte 0 -- -- 76
2019-06-17 05:00:00 15.9 4 Nordeste 6 Norte 0 -- -- 81
2019-06-17 04:00:00 17 4 Nordeste 9 Nordeste 0 -- -- 74
2019-06-17 03:00:00 17.1 4 Noroeste 8 Norte 0 -- -- 74
2019-06-17 02:00:00 16.5 0 Calma 6 Norte 0 -- -- 75
2019-06-17 01:00:00 17.9 3 Norte 9 Norte 0 -- -- 72
2019-06-17 00:00:00 18.9 7 Norte 17 Nordeste 0 -- -- 73
2019-06-16 23:00:00 19.3 11 Nordeste 26 Nordeste 0 -- -- 72
2019-06-16 22:00:00 19.6 12 Nordeste 25 Nordeste 0 -- -- 70
2019-06-16 21:00:00 20.1 14 Nordeste 32 Este 0 -- -- 69
2019-06-16 20:00:00 21.9 17 Nordeste 28 Nordeste 0 -- -- 62
2019-06-16 19:00:00 22.6 15 Nordeste 29 Este 0 -- -- 61
2019-06-16 18:00:00 22.4 19 Este 32 Nordeste 0 -- -- 61
2019-06-16 17:00:00 22.8 19 Este 33 Este 0 -- -- 60
2019-06-16 16:00:00 23.7 19 Este 34 Este 0 -- -- 57
2019-06-16 15:00:00 23.1 18 Este 33 Nordeste 0 -- -- 61
2019-06-16 14:00:00 23.2 20 Nordeste 31 Nordeste 0 -- -- 60
2019-06-16 13:00:00 22.4 17 Nordeste 31 Este 0 -- -- 63
2019-06-16 12:00:00 22.4 18 Este 29 Nordeste 0 -- -- 62
2019-06-16 11:00:00 22.1 17 Este 26 Este 0 -- -- 65
2019-06-16 10:00:00 21.8 14 Nordeste 23 Nordeste 0 -- -- 65
2019-06-16 09:00:00 20.6 8 Nordeste 15 Nordeste 0 -- -- 68
2019-06-16 08:00:00 17.9 8 Norte 14 Nordeste 0 -- -- 74
2019-06-16 07:00:00 16.2 6 Norte 13 Norte 0 -- -- 78
2019-06-16 06:00:00 16.1 6 Norte 9 Norte 0 -- -- 80
2019-06-16 05:00:00 17.5 6 Norte 13 Norte 0 -- -- 76
2019-06-16 04:00:00 17.7 6 Nordeste 12 Nordeste 0 -- -- 77
2019-06-16 03:00:00 18.2 8 Nordeste 15 Nordeste 0 -- -- 75
2019-06-16 02:00:00 18.5 9 Nordeste 20 Nordeste 0 -- -- 74
2019-06-16 01:00:00 19.1 12 Nordeste 24 Nordeste 0 -- -- 71
2019-06-16 00:00:00 19.3 12 Nordeste 27 Nordeste 0 -- -- 70
2019-06-15 23:00:00 19.4 13 Nordeste 28 Nordeste 0 -- -- 70
2019-06-15 22:00:00 19.7 15 Nordeste 26 Nordeste 0 -- -- 68
2019-06-15 21:00:00 20 15 Nordeste 30 Nordeste 0 -- -- 66
2019-06-15 20:00:00 20.3 17 Nordeste 31 Nordeste 0 -- -- 67
2019-06-15 19:00:00 21 17 Nordeste 30 Este 0 -- -- 65
2019-06-15 18:00:00 21.1 16 Este 26 Este 0 -- -- 62
2019-06-15 17:00:00 21.3 13 Este 24 Este 0 -- -- 61
2019-06-15 16:00:00 21.1 13 Nordeste 27 Nordeste 0 -- -- 63
2019-06-15 15:00:00 21.5 15 Nordeste 28 Este 0 -- -- 62
2019-06-15 14:00:00 22.2 19 Nordeste 33 Este 0 -- -- 62
2019-06-15 13:00:00 22.7 17 Este 30 Nordeste 0 -- -- 60
2019-06-15 12:00:00 23 17 Este 30 Este 0 -- -- 54
2019-06-15 11:00:00 22.3 19 Este 30 Este 0 -- -- 53
2019-06-15 10:00:00 22.2 13 Nordeste 26 Nordeste 0 -- -- 51
2019-06-15 09:00:00 21 18 Nordeste 28 Nordeste 0 -- -- 58
2019-06-15 08:00:00 19.1 12 Nordeste 23 Nordeste 0 -- -- 66
2019-06-15 07:00:00 18.7 10 Nordeste 22 Nordeste 0 -- -- 71
2019-06-15 06:00:00 18.7 9 Nordeste 20 Nordeste 0 -- -- 70
2019-06-15 05:00:00 18 10 Norte 23 Norte 0 -- -- 69
2019-06-15 04:00:00 18.3 13 Norte 25 Nordeste 0 -- -- 69
2019-06-15 03:00:00 18.5 12 Nordeste 23 Nordeste 0 -- -- 70
2019-06-15 02:00:00 18.1 10 Norte 18 Norte 0 -- -- 68
2019-06-15 01:00:00 18.2 9 Norte 22 Nordeste 0 -- -- 69
2019-06-15 00:00:00 18.5 12 Nordeste 27 Nordeste 0 -- -- 70
2019-06-14 23:00:00 19 14 Nordeste 31 Nordeste 0 -- -- 69
2019-06-14 22:00:00 19.4 16 Nordeste 36 Nordeste 0 -- -- 67
2019-06-14 21:00:00 19.9 17 Nordeste 35 Norte 0 -- -- 67
2019-06-14 20:00:00 20.7 16 Nordeste 33 Nordeste 0 -- -- 63
2019-06-14 19:00:00 21.4 17 Nordeste 35 Nordeste 0 -- -- 55
2019-06-14 18:00:00 21.5 20 Nordeste 36 Nordeste 0 -- -- 53
2019-06-14 17:00:00 21.1 16 Nordeste 28 Nordeste 0 -- -- 67
2019-06-14 16:00:00 21.1 14 Nordeste 33 Nordeste 0 -- -- 65
2019-06-14 15:00:00 21.2 20 Nordeste 35 Nordeste 0 -- -- 63
2019-06-14 14:00:00 22.1 20 Nordeste 32 Nordeste 0 -- -- 62
2019-06-14 13:00:00 22.3 19 Nordeste 31 Nordeste 0 -- -- 57
2019-06-14 12:00:00 22.7 17 Este 29 Nordeste 0 -- -- 60
2019-06-14 11:00:00 22.6 17 Nordeste 31 Nordeste 0 -- -- 55
2019-06-14 10:00:00 21.8 16 Nordeste 26 Nordeste 0 -- -- 57
2019-06-14 09:00:00 20.7 14 Nordeste 24 Nordeste 0 -- -- 61
2019-06-14 08:00:00 17.7 11 Nordeste 18 Nordeste 0 -- -- 75
2019-06-14 07:00:00 17.3 9 Nordeste 21 Nordeste 0 -- -- 75
2019-06-14 06:00:00 17.7 10 Nordeste 21 Nordeste 0 -- -- 74
2019-06-14 05:00:00 18 12 Nordeste 22 Nordeste 0 -- -- 70
2019-06-14 04:00:00 18.1 14 Nordeste 24 Nordeste 0 -- -- 64
2019-06-14 03:00:00 18.3 11 Nordeste 22 Nordeste 0 -- -- 66
2019-06-14 02:00:00 18.4 14 Nordeste 24 Nordeste 0 -- -- 66
2019-06-14 01:00:00 18.9 14 Nordeste 29 Nordeste 0 -- -- 63
2019-06-14 00:00:00 19.1 12 Nordeste 29 Norte 0 -- -- 66
2019-06-13 23:00:00 20.2 17 Nordeste 29 Nordeste 0 -- -- 57
2019-06-13 22:00:00 20.4 14 Nordeste 32 Nordeste 0 -- -- 60
2019-06-13 21:00:00 20.6 17 Nordeste 32 Nordeste 0 -- -- 59
2019-06-13 20:00:00 21.2 16 Nordeste 37 Nordeste 0 -- -- 58
2019-06-13 19:00:00 21.7 16 Nordeste 38 Norte 0 -- -- 58
2019-06-13 18:00:00 22 15 Nordeste 29 Nordeste 0 -- -- 56
2019-06-13 17:00:00 23.8 11 Sur 25 Sudoeste 0 -- -- 52
2019-06-13 16:00:00 23.5 15 Sudoeste 25 Sur 0 -- -- 56
2019-06-13 15:00:00 24.1 17 Sudoeste 26 Sudoeste 0 -- -- 49
2019-06-13 14:00:00 23.1 15 Sudoeste 30 Sudoeste 0 -- -- 54
2019-06-13 13:00:00 24.4 18 Sudoeste 26 Sudoeste 0 -- -- 51
2019-06-13 12:00:00 23.3 5 Sur 38 Nordeste 0 -- -- 51
2019-06-13 11:00:00 22.2 18 Norte 31 Norte 0 -- -- 51
2019-06-13 10:00:00 21.1 16 Norte 30 Norte 0 -- -- 55
2019-06-13 09:00:00 20.2 21 Norte 33 Norte 0 -- -- 57
2019-06-13 08:00:00 19.6 13 Norte 32 Norte 0 -- -- 60
2019-06-13 07:00:00 18.9 18 Norte 28 Norte 0 -- -- 64
2019-06-13 06:00:00 19.5 13 Norte 27 Norte 0 -- -- 55
2019-06-13 05:00:00 19.1 15 Norte 31 Norte 0 -- -- 63
2019-06-13 04:00:00 20.2 14 Norte 35 Norte 0 -- -- 54
2019-06-13 03:00:00 20 20 Norte 35 Nordeste 0 -- -- 53
2019-06-13 02:00:00 20 15 Nordeste 32 Norte 0 -- -- 56
2019-06-13 01:00:00 20 24 Norte 36 Norte 0 -- -- 55
2019-06-13 00:00:00 20.1 13 Nordeste 28 Nordeste 0 -- -- 58
2019-06-12 23:00:00 20.5 8 Nordeste 31 Nordeste 0 -- -- 62
2019-06-12 22:00:00 19.7 21 Nordeste 36 Nordeste 0 -- -- 68
2019-06-12 21:00:00 20.4 23 Nordeste 50 Nordeste 0 -- -- 66
2019-06-12 20:00:00 21.6 29 Nordeste 46 Nordeste 0 -- -- 65
2019-06-12 19:00:00 23.5 27 Nordeste 43 Norte 0 -- -- 58
2019-06-12 18:00:00 24.2 16 Oeste 30 Sudoeste 0 -- -- 57
2019-06-12 17:00:00 24.4 13 Sur 26 Sudoeste 0 -- -- 54
2019-06-12 16:00:00 23.6 19 Sudoeste 30 Sudoeste 0 -- -- 64
2019-06-12 15:00:00 23.8 15 Sudoeste 28 Nordeste 0 -- -- 61
2019-06-12 14:00:00 24.4 13 Noroeste 40 Nordeste 0 -- -- 56
2019-06-12 13:00:00 22.6 8 Sur 39 Norte 0 -- -- 64
2019-06-12 12:00:00 23.8 22 Norte 51 Norte 0 -- -- 58
2019-06-12 11:00:00 22.1 31 Norte 47 Norte 0 -- -- 65
2019-06-12 10:00:00 20.2 21 Nordeste 36 Nordeste 0 -- -- 76
2019-06-12 09:00:00 20.9 10 Norte 22 Oeste 0 -- -- 72
2019-06-12 08:00:00 20.2 6 Noroeste 37 Norte 0 -- -- 67
2019-06-12 07:00:00 19.9 15 Norte 42 Norte 0 -- -- 69
2019-06-12 06:00:00 19.4 20 Nordeste 37 Norte 0 -- -- 75
2019-06-12 05:00:00 19.5 19 Norte 38 Norte 0 -- -- 75
2019-06-12 04:00:00 20.1 9 Norte 35 Norte 0 -- -- 72
2019-06-12 03:00:00 19.9 4 Este 31 Norte 0 -- -- 71
2019-06-12 02:00:00 20.2 16 Norte 38 Norte 0 -- -- 69
2019-06-12 01:00:00 20.8 16 Norte 40 Norte 0 -- -- 64
2019-06-12 00:00:00 20.4 12 Norte 43 Norte 0 -- -- 70
2019-06-11 23:00:00 20.8 19 Norte 54 Norte 0 -- -- 64
2019-06-11 22:00:00 20.7 22 Nordeste 56 Norte 0 -- -- 65
2019-06-11 21:00:00 21.1 27 Nordeste 54 Norte 0 -- -- 63
2019-06-11 20:00:00 22.2 31 Nordeste 54 Nordeste 0 -- -- 60
2019-06-11 19:00:00 24.3 23 Norte 59 Nordeste 0 -- -- 51
2019-06-11 18:00:00 23.9 35 Nordeste 63 Nordeste 0 -- -- 56
2019-06-11 17:00:00 24.4 38 Nordeste 67 Norte 0 -- -- 56
2019-06-11 16:00:00 25.1 36 Nordeste 64 Norte 0 -- -- 52
2019-06-11 15:00:00 24.8 41 Norte 64 Norte 0 -- -- 53
2019-06-11 14:00:00 23.9 34 Nordeste 64 Norte 0 -- -- 61
2019-06-11 13:00:00 24.4 32 Nordeste 56 Norte 0 -- -- 58
2019-06-11 12:00:00 24.3 35 Norte 59 Norte 0 -- -- 53
2019-06-11 11:00:00 23 31 Norte 62 Norte 0 -- -- 55
2019-06-11 10:00:00 21.6 34 Nordeste 68 Norte 0 -- -- 58
2019-06-11 09:00:00 20.5 27 Norte 46 Nordeste 0 -- -- 62
2019-06-11 08:00:00 19.1 8 Norte 40 Norte 0 -- -- 70
2019-06-11 07:00:00 19.1 17 Norte 36 Nordeste 0 -- -- 68
2019-06-11 06:00:00 19.6 16 Norte 45 Norte 0 -- -- 61
2019-06-11 05:00:00 19.6 23 Norte 44 Norte 0 -- -- 62
2019-06-11 04:00:00 19.4 19 Norte 38 Norte 0 -- -- 60
2019-06-11 03:00:00 19.8 23 Norte 42 Norte 0 -- -- 58
2019-06-11 02:00:00 19.9 28 Norte 44 Norte 0 -- -- 59
2019-06-11 01:00:00 19.8 24 Norte 39 Norte 0 -- -- 61
2019-06-11 00:00:00 19.8 17 Nordeste 38 Nordeste 0 -- -- 63
2019-06-10 23:00:00 20.4 25 Nordeste 55 Norte 0 -- -- 60
2019-06-10 22:00:00 20.5 33 Norte 55 Norte 0 -- -- 61
2019-06-10 21:00:00 20.3 26 Nordeste 55 Norte 0 -- -- 68
2019-06-10 20:00:00 22.2 31 Norte 63 Nordeste 0 -- -- 58
2019-06-10 19:00:00 22.9 40 Nordeste 64 Nordeste 0 -- -- 53
2019-06-10 18:00:00 24.1 34 Nordeste 62 Nordeste 0 -- -- 49
2019-06-10 17:00:00 24.4 37 Nordeste 60 Nordeste 0 -- -- 50
2019-06-10 16:00:00 25.5 34 Norte 61 Nordeste 0 -- -- 46
2019-06-10 15:00:00 25.5 37 Nordeste 63 Norte 0 -- -- 47
2019-06-10 14:00:00 25.1 33 Nordeste 60 Norte 0 -- -- 48
2019-06-10 13:00:00 24.3 35 Nordeste 58 Nordeste 0 -- -- 53
2019-06-10 12:00:00 23.5 32 Nordeste 54 Nordeste 0 -- -- 53
2019-06-10 11:00:00 22.2 35 Nordeste 56 Nordeste 0 -- -- 57
2019-06-10 10:00:00 21.2 31 Nordeste 53 Nordeste 0 -- -- 62
2019-06-10 09:00:00 20.4 32 Nordeste 61 Norte 0 -- -- 65
2019-06-10 08:00:00 19 26 Nordeste 55 Nordeste 0 -- -- 67
2019-06-10 07:00:00 18.8 28 Nordeste 53 Norte 0 -- -- 66
2019-06-10 06:00:00 18.4 26 Nordeste 51 Nordeste 0 -- -- 71
2019-06-10 05:00:00 19.1 32 Norte 54 Nordeste 0 -- -- 64
2019-06-10 04:00:00 19 32 Nordeste 54 Nordeste 0 -- -- 66
2019-06-10 03:00:00 19 29 Nordeste 55 Nordeste 0 -- -- 68
2019-06-10 02:00:00 19.2 30 Nordeste 55 Norte 0 -- -- 68
2019-06-10 01:00:00 19.1 30 Nordeste 55 Nordeste 0 -- -- 69
2019-06-10 00:00:00 19.3 27 Nordeste 57 Norte 0 -- -- 69
2019-06-09 23:00:00 19.6 33 Nordeste 65 Norte 0 -- -- 65
2019-06-09 22:00:00 19.6 38 Nordeste 63 Nordeste 0 -- -- 63
2019-06-09 21:00:00 19.8 37 Nordeste 61 Norte 0 -- -- 63
2019-06-09 20:00:00 21.2 38 Nordeste 65 Nordeste 0 -- -- 58
2019-06-09 19:00:00 22.3 38 Nordeste 62 Nordeste 0 -- -- 53
2019-06-09 18:00:00 23.3 38 Nordeste 64 Norte 0 -- -- 51
2019-06-09 17:00:00 23.9 35 Nordeste 66 Norte 0 -- -- 48
2019-06-09 16:00:00 23.6 37 Nordeste 65 Nordeste 0 -- -- 50
2019-06-09 15:00:00 23.6 35 Nordeste 58 Nordeste 0 -- -- 47
2019-06-09 14:00:00 23.6 34 Nordeste 57 Nordeste 0 -- -- 47
2019-06-09 13:00:00 23.4 32 Nordeste 57 Nordeste 0 -- -- 50
2019-06-09 12:00:00 23 28 Nordeste 49 Nordeste 0 -- -- 51
2019-06-09 11:00:00 20.9 29 Nordeste 47 Nordeste 0 -- -- 60
2019-06-09 10:00:00 21 28 Norte 44 Norte 0 -- -- 56
2019-06-09 09:00:00 20.3 26 Nordeste 44 Nordeste 0 -- -- 54
2019-06-09 08:00:00 18.9 23 Norte 38 Nordeste 0 -- -- 65
2019-06-09 07:00:00 19 20 Norte 41 Norte 0 -- -- 56
2019-06-09 06:00:00 18.9 22 Norte 36 Norte 0 -- -- 64
2019-06-09 05:00:00 19.1 23 Nordeste 42 Nordeste 0 -- -- 64
2019-06-09 04:00:00 19.2 24 Norte 44 Norte 0 -- -- 62
2019-06-09 03:00:00 18.8 24 Nordeste 51 Nordeste 0 -- -- 62
2019-06-09 02:00:00 18.9 27 Nordeste 50 Nordeste 0 -- -- 66
2019-06-09 01:00:00 19 29 Nordeste 48 Nordeste 0 -- -- 66
2019-06-09 00:00:00 19.3 28 Nordeste 49 Nordeste 0 -- -- 64
2019-06-08 23:00:00 19.5 28 Nordeste 50 Nordeste 0 -- -- 66
2019-06-08 22:00:00 19.7 29 Nordeste 48 Norte 0 -- -- 65
2019-06-08 21:00:00 20 28 Nordeste 53 Nordeste 0 -- -- 64
2019-06-08 20:00:00 21.5 34 Nordeste 55 Norte 0 -- -- 61
2019-06-08 19:00:00 22.7 32 Nordeste 55 Nordeste 0 -- -- 55
2019-06-08 18:00:00 23.3 29 Nordeste 50 Nordeste 0 -- -- 57
2019-06-08 17:00:00 23.3 27 Nordeste 48 Nordeste 0 -- -- 59
2019-06-08 16:00:00 23.3 26 Nordeste 46 Nordeste 0 -- -- 60
2019-06-08 15:00:00 23.9 27 Nordeste 49 Nordeste 0 -- -- 58
2019-06-08 14:00:00 24.2 26 Nordeste 49 Nordeste 0 -- -- 58
2019-06-08 13:00:00 24.2 28 Nordeste 47 Norte 0 -- -- 58
2019-06-08 12:00:00 24 25 Nordeste 42 Nordeste 0 -- -- 59
2019-06-08 11:00:00 22.9 23 Nordeste 40 Nordeste 0 -- -- 65
2019-06-08 10:00:00 20.6 19 Norte 40 Nordeste 0 -- -- 74
2019-06-08 09:00:00 20.9 21 Nordeste 37 Nordeste 0 -- -- 76
2019-06-08 08:00:00 19.6 15 Nordeste 30 Nordeste 0 -- -- 82
2019-06-08 07:00:00 19.3 15 Nordeste 38 Nordeste 0 -- -- 82
2019-06-08 06:00:00 19.5 21 Nordeste 37 Norte 0 -- -- 82
2019-06-08 05:00:00 19.8 20 Nordeste 39 Norte 0 -- -- 79
2019-06-08 04:00:00 20 22 Nordeste 40 Nordeste 0 -- -- 80
2019-06-08 03:00:00 20 16 Norte 34 Norte 0 -- -- 79
2019-06-08 02:00:00 19.5 6 Sudeste 16 Sur 0 -- -- 78
2019-06-08 01:00:00 20.4 10 Oeste 32 Norte 0 -- -- 75
2019-06-08 00:00:00 21.9 22 Norte 42 Norte 0 -- -- 61
2019-06-07 23:00:00 21.1 14 Nordeste 39 Nordeste 0 -- -- 66
2019-06-07 22:00:00 21.2 15 Nordeste 35 Nordeste 0 -- -- 66
2019-06-07 21:00:00 21.4 16 Nordeste 33 Nordeste 0 -- -- 65
2019-06-07 20:00:00 23.4 14 Nordeste 43 Norte 0 -- -- 59
2019-06-07 19:00:00 24.3 21 Nordeste 46 Nordeste 0 -- -- 60
2019-06-07 18:00:00 24.8 26 Nordeste 60 Nordeste 0 -- -- 54
2019-06-07 17:00:00 24.9 33 Nordeste 54 Nordeste 0 -- -- 54
2019-06-07 16:00:00 25.5 32 Nordeste 54 Nordeste 0 -- -- 51
2019-06-07 15:00:00 24.6 31 Nordeste 57 Nordeste 0 -- -- 55
2019-06-07 14:00:00 25.5 29 Nordeste 55 Nordeste 0 -- -- 52
2019-06-07 13:00:00 25 28 Nordeste 55 Norte 0 -- -- 49
2019-06-07 12:00:00 23.6 35 Norte 52 Norte 0 -- -- 52
2019-06-07 11:00:00 23.1 27 Norte 50 Nordeste 0 -- -- 53
2019-06-07 10:00:00 21.8 27 Nordeste 46 Nordeste 0 -- -- 58
2019-06-07 09:00:00 21.2 18 Norte 32 Norte 0 -- -- 54
2019-06-07 08:00:00 19.2 10 Norte 25 Nordeste 0 -- -- 59
2019-06-07 07:00:00 18.5 7 Norte 22 Norte 0 -- -- 63
2019-06-07 06:00:00 18.7 10 Norte 23 Norte 0 -- -- 61
2019-06-07 05:00:00 19.2 12 Norte 26 Nordeste 0 -- -- 58
2019-06-07 04:00:00 19.3 8 Norte 35 Norte 0 -- -- 58
2019-06-07 03:00:00 19.1 15 Norte 36 Norte 0 -- -- 61
2019-06-07 02:00:00 20 24 Norte 50 Nordeste 0 -- -- 55
2019-06-07 01:00:00 19.4 23 Nordeste 50 Norte 0 -- -- 58
2019-06-07 00:00:00 19.3 20 Norte 45 Nordeste 0 -- -- 59
2019-06-06 23:00:00 19.3 21 Nordeste 53 Nordeste 0 -- -- 61
2019-06-06 22:00:00 19.6 32 Norte 61 Norte 0 -- -- 58
2019-06-06 21:00:00 20 24 Norte 46 Norte 0 -- -- 55
2019-06-06 20:00:00 20.9 24 Nordeste 50 Nordeste 0 -- -- 53
2019-06-06 19:00:00 23.1 13 Norte 47 Nordeste 0 -- -- 55
2019-06-06 18:00:00 22.8 27 Nordeste 46 Nordeste 0 -- -- 51
2019-06-06 17:00:00 22.3 28 Nordeste 52 Norte 0 -- -- 55
2019-06-06 16:00:00 24.1 30 Nordeste 58 Nordeste 0 -- -- 53
2019-06-06 15:00:00 24 30 Nordeste 55 Nordeste 0 -- -- 51
2019-06-06 14:00:00 24 32 Nordeste 53 Norte 0 -- -- 50
2019-06-06 13:00:00 23.9 30 Nordeste 49 Nordeste 0 -- -- 48
2019-06-06 12:00:00 23 30 Norte 51 Norte 0 -- -- 48
2019-06-06 11:00:00 22.4 26 Nordeste 45 Nordeste 0 -- -- 54
2019-06-06 10:00:00 22.2 22 Nordeste 46 Nordeste 0 -- -- 50
2019-06-06 09:00:00 20.6 24 Nordeste 42 Nordeste 0 -- -- 55
2019-06-06 08:00:00 19.3 22 Nordeste 43 Norte 0 -- -- 64
2019-06-06 07:00:00 18.8 22 Nordeste 42 Norte 0 -- -- 65
2019-06-06 06:00:00 18.7 21 Nordeste 41 Nordeste 0 -- -- 68
2019-06-06 05:00:00 19 22 Nordeste 39 Nordeste 0 -- -- 69
2019-06-06 04:00:00 19.1 21 Nordeste 40 Nordeste 0 -- -- 72
2019-06-06 03:00:00 19.1 21 Nordeste 41 Nordeste 0 -- -- 72
2019-06-06 02:00:00 19.3 22 Nordeste 42 Nordeste 0 -- -- 71
2019-06-06 01:00:00 19.5 21 Nordeste 48 Nordeste 0 -- -- 77
2019-06-06 00:00:00 19.8 24 Nordeste 43 Norte 0 -- -- 76
2019-06-05 23:00:00 20 24 Nordeste 46 Nordeste 0 -- -- 76
2019-06-05 22:00:00 20.2 26 Nordeste 46 Nordeste 0 -- -- 77
2019-06-05 21:00:00 21.1 26 Nordeste 50 Norte 0 -- -- 69
2019-06-05 20:00:00 22.1 25 Nordeste 45 Norte 0 -- -- 62
2019-06-05 19:00:00 23 28 Norte 47 Norte 0 -- -- 55
2019-06-05 18:00:00 23.5 28 Nordeste 49 Nordeste 0 -- -- 56
2019-06-05 17:00:00 23.8 32 Nordeste 50 Norte 0 -- -- 61
2019-06-05 16:00:00 25.4 31 Nordeste 51 Nordeste 0 -- -- 54
2019-06-05 15:00:00 25.7 28 Nordeste 50 Nordeste 0 -- -- 54
2019-06-05 14:00:00 25.1 30 Nordeste 56 Nordeste 0 -- -- 58
2019-06-05 13:00:00 24.7 34 Nordeste 58 Nordeste 0 -- -- 59
2019-06-05 12:00:00 24.6 29 Nordeste 54 Nordeste 0 -- -- 63
2019-06-05 11:00:00 23.9 30 Nordeste 53 Nordeste 0 -- -- 63
2019-06-05 10:00:00 23.2 30 Nordeste 54 Nordeste 0 -- -- 62
2019-06-05 09:00:00 22 29 Nordeste 59 Norte 0 -- -- 67
2019-06-05 08:00:00 21.1 33 Nordeste 55 Norte 0 -- -- 69
2019-06-05 07:00:00 21.1 31 Norte 51 Norte 0 -- -- 67
2019-06-05 06:00:00 20.9 28 Nordeste 49 Norte 0 -- -- 68
2019-06-05 05:00:00 20.6 17 Norte 26 Norte 0 -- -- 69
2019-06-05 04:00:00 20.8 15 Norte 40 Norte 0 -- -- 70
2019-06-05 03:00:00 20.8 22 Norte 44 Norte 0 -- -- 67
2019-06-05 02:00:00 20.8 29 Norte 55 Norte 0 -- -- 69
2019-06-05 01:00:00 20.7 29 Norte 51 Norte 0 -- -- 71
2019-06-05 00:00:00 21 26 Norte 44 Nordeste 0 -- -- 68
2019-06-04 23:00:00 21.1 22 Nordeste 36 Norte 0 -- -- 65
2019-06-04 22:00:00 21.2 14 Nordeste 28 Norte 0 -- -- 63
2019-06-04 21:00:00 22.3 14 Norte 27 Nordeste 0 -- -- 61
2019-06-04 20:00:00 24.6 14 Norte 30 Norte 0 -- -- 57
2019-06-04 19:00:00 25.3 10 Norte 30 Nordeste 0 -- -- 57
2019-06-04 18:00:00 26.7 18 Nordeste 39 Nordeste 0 -- -- 52
2019-06-04 17:00:00 27.7 23 Nordeste 45 Nordeste 0 -- -- 50
2019-06-04 16:00:00 28.7 27 Nordeste 47 Nordeste 0 -- -- 40
2019-06-04 15:00:00 29.8 27 Nordeste 49 Norte 0 -- -- 33
2019-06-04 14:00:00 29.4 31 Nordeste 48 Nordeste 0 -- -- 29
2019-06-04 13:00:00 29.3 29 Nordeste 55 Norte 0 -- -- 29
2019-06-04 12:00:00 29.4 27 Nordeste 50 Nordeste 0 -- -- 26
2019-06-04 11:00:00 27.8 28 Nordeste 52 Norte 0 -- -- 29
2019-06-04 10:00:00 26.9 25 Nordeste 46 Nordeste 0 -- -- 32
2019-06-04 09:00:00 26.2 22 Nordeste 41 Norte 0 -- -- 29
2019-06-04 08:00:00 21.5 3 Sur 13 Norte 0 -- -- 53
2019-06-04 07:00:00 20.2 5 Noroeste 15 Sudoeste 0 -- -- 75
2019-06-04 06:00:00 20.6 6 Sudoeste 23 Sudoeste 0 -- -- 79
2019-06-04 05:00:00 22.3 9 Oeste 41 Norte 0 -- -- 59
2019-06-04 04:00:00 25.4 25 Nordeste 43 Nordeste 0 -- -- 21
2019-06-04 03:00:00 24.3 28 Nordeste 51 Norte 0 -- -- 28
2019-06-04 02:00:00 22.2 10 Norte 22 Norte 0 -- -- 64
2019-06-04 01:00:00 21.5 4 Sur 15 Sur 0 -- -- 77
2019-06-04 00:00:00 22.7 6 Sudoeste 15 Sudeste 0 -- -- 62
2019-06-03 23:00:00 23.2 5 Sudoeste 23 Nordeste 0 -- -- 58
2019-06-03 22:00:00 26.9 6 Nordeste 22 Nordeste 0 -- -- 40
2019-06-03 21:00:00 22.4 6 Sudeste 26 Sur 0 -- -- 69
2019-06-03 20:00:00 24.5 8 Sudoeste 19 Sudoeste 0 -- -- 66
2019-06-03 19:00:00 25.5 14 Sur 33 Sur 0 -- -- 62
2019-06-03 18:00:00 27.2 12 Sudoeste 39 Sudoeste 0 -- -- 56
2019-06-03 17:00:00 28.1 21 Sudoeste 38 Sudoeste 0 -- -- 49
2019-06-03 16:00:00 29.3 13 Sur 40 Nordeste 0 -- -- 46
2019-06-03 15:00:00 30.6 26 Nordeste 49 Nordeste 0 -- -- 38
2019-06-03 14:00:00 31.9 31 Nordeste 51 Nordeste 0 -- -- 27
2019-06-03 13:00:00 31.4 30 Nordeste 51 Nordeste 0 -- -- 30
2019-06-03 12:00:00 30.5 28 Nordeste 47 Nordeste 0 -- -- 33
2019-06-03 11:00:00 29.9 24 Nordeste 44 Nordeste 0 -- -- 34
2019-06-03 10:00:00 30.7 23 Nordeste 41 Nordeste 0 -- -- 25
2019-06-03 09:00:00 28.7 24 Nordeste 43 Nordeste 0 -- -- 23
2019-06-03 08:00:00 26.1 18 Nordeste 32 Norte 0 -- -- 25
2019-06-03 07:00:00 18.9 4 Noroeste 10 Oeste 0 -- -- 88
2019-06-03 06:00:00 18.5 4 Sudoeste 12 Oeste 0 -- -- 84
2019-06-03 05:00:00 18.5 3 Noroeste 7 Sur 0 -- -- 94
2019-06-03 04:00:00 18.2 0 Calma 8 Norte 0 -- -- 94
2019-06-03 03:00:00 18.8 3 Sudoeste 8 Sur 0 -- -- 94
2019-06-03 02:00:00 19.4 4 Sur 15 Sudoeste 0 -- -- 94
2019-06-03 01:00:00 19.8 7 Sur 12 Sur 0 -- -- 93
2019-06-03 00:00:00 20.5 3 Oeste 9 Oeste 0 -- -- 91
2019-06-02 23:00:00 20.4 6 Sudoeste 16 Sudoeste 0 -- -- 91
2019-06-02 22:00:00 20.7 10 Sudoeste 15 Sudoeste 0 -- -- 89
2019-06-02 21:00:00 21.2 10 Sudoeste 16 Sur 0 -- -- 86
2019-06-02 20:00:00 22.8 10 Sudoeste 15 Sudoeste 0 -- -- 79
2019-06-02 19:00:00 24.2 7 Sur 15 Sur 0 -- -- 73
2019-06-02 18:00:00 25.1 10 Sur 21 Sudoeste 0 -- -- 70
2019-06-02 17:00:00 25.1 12 Sudoeste 24 Sur 0 -- -- 70
2019-06-02 16:00:00 24.7 16 Sur 24 Sudoeste 0 -- -- 72
2019-06-02 15:00:00 26.2 12 Sudoeste 27 Sudoeste 0 -- -- 64
2019-06-02 14:00:00 27.8 10 Sudoeste 25 Nordeste 0 -- -- 59
2019-06-02 13:00:00 28.4 15 Nordeste 27 Este 0 -- -- 56
2019-06-02 12:00:00 26.3 15 Este 24 Nordeste 0 -- -- 63
2019-06-02 11:00:00 24.8 14 Nordeste 23 Nordeste 0 -- -- 68
2019-06-02 10:00:00 24 5 Sudeste 12 Este 0 -- -- 72
2019-06-02 09:00:00 20.7 0 Calma 8 Oeste 0 -- -- 88
2019-06-02 08:00:00 18.8 0 Calma 7 Oeste 0 -- -- 95
2019-06-02 07:00:00 17.2 6 Oeste 8 Oeste 0 -- -- 93
2019-06-02 06:00:00 18.1 4 Nordeste 13 Nordeste 0 -- -- 93
2019-06-02 05:00:00 18.3 8 Norte 10 Nordeste 0 -- -- 92
2019-06-02 04:00:00 18 5 Norte 12 Sudoeste 0 -- -- 91
2019-06-02 03:00:00 18.9 8 Sudoeste 17 Sudoeste 0 -- -- 90
2019-06-02 02:00:00 18.4 5 Sudoeste 9 Sudoeste 0 -- -- 88
2019-06-02 01:00:00 19.3 4 Sudoeste 15 Noroeste 0 -- -- 80
2019-06-02 00:00:00 19.1 5 Nordeste 10 Nordeste 0 -- -- 82
2019-06-01 23:00:00 19.9 0 Calma 5 Oeste 0 -- -- 83
2019-06-01 22:00:00 19.8 3 Sur 9 Sudoeste 0 -- -- 85
2019-06-01 21:00:00 20.1 8 Sur 14 Sur 0 -- -- 83
2019-06-01 20:00:00 21.6 8 Sur 18 Sur 0 -- -- 77
2019-06-01 19:00:00 23 10 Sur 18 Sur 0 -- -- 71
2019-06-01 18:00:00 23.9 10 Sur 24 Sur 0 -- -- 68
2019-06-01 17:00:00 24.7 12 Este 24 Sudeste 0 -- -- 66
2019-06-01 16:00:00 25.4 12 Este 28 Este 0 -- -- 62
2019-06-01 15:00:00 25.4 18 Este 27 Este 0 -- -- 62
2019-06-01 14:00:00 24.8 17 Nordeste 30 Nordeste 0 -- -- 64
2019-06-01 13:00:00 24.1 19 Nordeste 32 Nordeste 0 -- -- 66
2019-06-01 12:00:00 23.9 19 Nordeste 32 Nordeste 0 -- -- 65
2019-06-01 11:00:00 23.1 21 Nordeste 37 Nordeste 0 -- -- 68
2019-06-01 10:00:00 22.4 17 Nordeste 27 Nordeste 0 -- -- 72
2019-06-01 09:00:00 19.9 4 Noroeste 11 Noroeste 0 -- -- 80
2019-06-01 08:00:00 18.8 0 Calma 7 Norte 0 -- -- 83
2019-06-01 07:00:00 17.6 4 Norte 9 Norte 0 -- -- 85
2019-06-01 06:00:00 18.1 5 Norte 11 Nordeste 0 -- -- 84
2019-06-01 05:00:00 17.3 0 Calma 6 Este 0 -- -- 83
2019-06-01 04:00:00 18.7 5 Este 21 Norte 0 -- -- 80
2019-06-01 03:00:00 19.7 11 Norte 24 Nordeste 0 -- -- 77
2019-06-01 02:00:00 19.6 13 Nordeste 20 Nordeste 0 -- -- 78
2019-06-01 01:00:00 19.8 8 Nordeste 13 Nordeste 0 -- -- 80
2019-06-01 00:00:00 19.3 7 Sur 12 Sur 0 -- -- 88
2019-05-31 23:00:00 19.1 7 Sur 11 Sur 0 -- -- 87
2019-05-31 22:00:00 19.6 7 Sur 13 Sur 0 -- -- 85
2019-05-31 21:00:00 20.3 8 Sudoeste 19 Sudoeste 0 -- -- 81
2019-05-31 20:00:00 22.3 11 Sudoeste 18 Sudoeste 0 -- -- 72
2019-05-31 19:00:00 22.6 6 Sur 15 Sur 0 -- -- 69
2019-05-31 18:00:00 23.8 9 Sur 22 Sudeste 0 -- -- 65
2019-05-31 17:00:00 25.9 8 Este 20 Sur 0 -- -- 58
2019-05-31 16:00:00 26.6 9 Sur 27 Este 0 -- -- 55
2019-05-31 15:00:00 25.7 11 Sur 27 Sudoeste 0 -- -- 59
2019-05-31 14:00:00 23.8 16 Sudoeste 23 Oeste 0 -- -- 65
2019-05-31 13:00:00 25.6 8 Sur 19 Sur 0 -- -- 59
2019-05-31 12:00:00 24.3 10 Sudeste 19 Sudeste 0 -- -- 65
2019-05-31 11:00:00 23.1 12 Sur 20 Sur 0 -- -- 70
2019-05-31 10:00:00 21.6 9 Sudoeste 14 Sudoeste 0 -- -- 73
2019-05-31 09:00:00 21 3 Sudeste 7 Sudoeste 0 -- -- 76
2019-05-31 08:00:00 17.4 5 Noroeste 6 Norte 0 -- -- 90
2019-05-31 07:00:00 15.8 6 Norte 8 Norte 0 -- -- 91
2019-05-31 06:00:00 15.5 0 Calma 6 Noroeste 0 -- -- 91
2019-05-31 05:00:00 15.9 4 Oeste 6 Oeste 0 -- -- 90
2019-05-31 04:00:00 16.9 5 Nordeste 9 Norte 0 -- -- 86
2019-05-31 03:00:00 17.1 5 Noroeste 12 Norte 0 -- -- 80
2019-05-31 02:00:00 17.6 6 Nordeste 11 Nordeste 0 -- -- 79
2019-05-31 01:00:00 17.4 4 Nordeste 6 Nordeste 0 -- -- 84
2019-05-31 00:00:00 18 0 Calma 4 Este 0 -- -- 88
2019-05-30 23:00:00 18.4 4 Sur 8 Sur 0 -- -- 86
2019-05-30 22:00:00 19.1 6 Sudoeste 13 Sudoeste 0 -- -- 83
2019-05-30 21:00:00 19.9 11 Sudoeste 18 Sudoeste 0 -- -- 80
2019-05-30 20:00:00 21.9 12 Sudoeste 22 Sudoeste 0 -- -- 70
2019-05-30 19:00:00 23.1 15 Sudoeste 27 Sudoeste 0 -- -- 65
2019-05-30 18:00:00 25.4 13 Nordeste 31 Nordeste 0 -- -- 56
2019-05-30 17:00:00 25.4 19 Nordeste 33 Nordeste 0 -- -- 56
2019-05-30 16:00:00 25.5 20 Nordeste 36 Nordeste 0 -- -- 55
2019-05-30 15:00:00 25.8 21 Nordeste 37 Nordeste 0 -- -- 55
2019-05-30 14:00:00 25.6 19 Nordeste 38 Norte 0 -- -- 56
2019-05-30 13:00:00 25.4 17 Este 33 Este 0 -- -- 56
2019-05-30 12:00:00 25.1 9 Sudeste 24 Nordeste 0 -- -- 56
2019-05-30 11:00:00 23.5 7 Este 18 Este 0 -- -- 60
2019-05-30 10:00:00 22 3 Este 13 Este 0 -- -- 66
2019-05-30 09:00:00 20.3 5 Nordeste 10 Nordeste 0 -- -- 72
2019-05-30 08:00:00 17.6 5 Norte 8 Norte 0 -- -- 81
2019-05-30 07:00:00 16.2 6 Norte 8 Norte 0 -- -- 82
2019-05-30 06:00:00 16.9 5 Nordeste 9 Norte 0 -- -- 78
2019-05-30 05:00:00 16.9 6 Nordeste 12 Nordeste 0 -- -- 78
2019-05-30 04:00:00 17.6 7 Norte 12 Nordeste 0 -- -- 76
2019-05-30 03:00:00 17.9 8 Nordeste 13 Nordeste 0 -- -- 76
2019-05-30 02:00:00 18.1 7 Nordeste 17 Nordeste 0 -- -- 75
2019-05-30 01:00:00 17.9 6 Nordeste 11 Nordeste 0 -- -- 75
2019-05-30 00:00:00 17.9 4 Nordeste 11 Nordeste 0 -- -- 75
2019-05-29 23:00:00 18 6 Nordeste 10 Este 0 -- -- 75
2019-05-29 22:00:00 19.3 6 Nordeste 17 Norte 0 -- -- 72
2019-05-29 21:00:00 20.5 9 Nordeste 21 Nordeste 0 -- -- 67
2019-05-29 20:00:00 23.4 10 Nordeste 22 Nordeste 0 -- -- 59
2019-05-29 19:00:00 24.5 14 Nordeste 28 Nordeste 0 -- -- 56
2019-05-29 18:00:00 25 18 Nordeste 35 Nordeste 0 -- -- 55
2019-05-29 17:00:00 25.5 19 Nordeste 30 Norte 0 -- -- 54
2019-05-29 16:00:00 25 15 Oeste 30 Nordeste 0 -- -- 55
2019-05-29 15:00:00 25.6 11 Sur 26 Oeste 0 -- -- 54
2019-05-29 14:00:00 24.5 14 Sudeste 26 Sur 0 -- -- 61
2019-05-29 13:00:00 24.5 16 Sur 26 Sur 0 -- -- 61
2019-05-29 12:00:00 24.2 13 Sur 25 Sudoeste 0 -- -- 62
2019-05-29 11:00:00 23.5 6 Sudoeste 24 Nordeste 0 -- -- 62
2019-05-29 10:00:00 22.6 8 Nordeste 19 Este 0 -- -- 64
2019-05-29 09:00:00 20.7 6 Nordeste 11 Nordeste 0 -- -- 71
2019-05-29 08:00:00 18.6 6 Nordeste 12 Norte 0 -- -- 75
2019-05-29 07:00:00 17 4 Nordeste 9 Norte 0 -- -- 78
2019-05-29 06:00:00 16.8 0 Calma 13 Nordeste 0 -- -- 78
2019-05-29 05:00:00 18 6 Nordeste 11 Norte 0 -- -- 75
2019-05-29 04:00:00 18.5 6 Nordeste 14 Nordeste 0 -- -- 76
2019-05-29 03:00:00 18.5 9 Nordeste 14 Nordeste 0 -- -- 77
2019-05-29 02:00:00 19 10 Nordeste 22 Nordeste 0 -- -- 75
2019-05-29 01:00:00 19 12 Nordeste 22 Norte 0 -- -- 74
2019-05-29 00:00:00 19.4 12 Nordeste 22 Nordeste 0 -- -- 74
2019-05-28 23:00:00 19.7 10 Nordeste 20 Norte 0 -- -- 73
2019-05-28 22:00:00 20.3 11 Nordeste 24 Nordeste 0 -- -- 71
2019-05-28 21:00:00 20.8 15 Norte 29 Norte 0 -- -- 70
2019-05-28 20:00:00 22.3 18 Nordeste 41 Nordeste 0 -- -- 65
2019-05-28 19:00:00 23.4 24 Nordeste 43 Nordeste 0 -- -- 63
2019-05-28 18:00:00 23.9 26 Nordeste 43 Nordeste 0 -- -- 62
2019-05-28 17:00:00 24.4 25 Nordeste 45 Nordeste 0 -- -- 59
2019-05-28 16:00:00 24.8 24 Nordeste 39 Nordeste 0 -- -- 58
2019-05-28 15:00:00 26 10 Norte 32 Sudeste 0 -- -- 55
2019-05-28 14:00:00 25.6 11 Sur 24 Sudeste 0 -- -- 57
2019-05-28 13:00:00 25.3 13 Sudoeste 27 Sur 0 -- -- 61
2019-05-28 12:00:00 24.4 9 Sudoeste 37 Noroeste 0 -- -- 64
2019-05-28 11:00:00 24.4 18 Nordeste 31 Nordeste 0 -- -- 58
2019-05-28 10:00:00 23.4 4 Este 14 Sudoeste 0 -- -- 64
2019-05-28 09:00:00 21.5 0 Calma 5 Nordeste 0 -- -- 73
2019-05-28 08:00:00 18.4 4 Norte 8 Norte 0 -- -- 87
2019-05-28 07:00:00 17.5 3 Sudeste 7 Sudeste 0 -- -- 88
2019-05-28 06:00:00 17 4 Norte 10 Oeste 0 -- -- 86
2019-05-28 05:00:00 17.3 3 Este 8 Este 0 -- -- 82
2019-05-28 04:00:00 18.8 3 Este 16 Nordeste 0 -- -- 78
2019-05-28 03:00:00 18.7 6 Nordeste 15 Nordeste 0 -- -- 77
2019-05-28 02:00:00 18.8 8 Nordeste 14 Nordeste 0 -- -- 78
2019-05-28 01:00:00 19 6 Nordeste 13 Norte 0 -- -- 78
2019-05-28 00:00:00 18.9 5 Nordeste 8 Nordeste 0 -- -- 81
2019-05-27 23:00:00 19.7 3 Sudoeste 14 Sur 0 -- -- 85
2019-05-27 22:00:00 20.8 6 Sur 18 Nordeste 0 -- -- 76
2019-05-27 21:00:00 21.5 12 Nordeste 22 Nordeste 0 -- -- 68
2019-05-27 20:00:00 22.9 9 Sudeste 29 Sur 0 -- -- 68
2019-05-27 19:00:00 24.3 14 Sur 42 Nordeste 0 -- -- 65
2019-05-27 18:00:00 28.3 26 Nordeste 49 Norte 0 -- -- 42
2019-05-27 17:00:00 28.6 28 Nordeste 52 Nordeste 0 -- -- 43
2019-05-27 16:00:00 27.3 18 Sur 36 Sudoeste 0 -- -- 50
2019-05-27 15:00:00 26.5 11 Sudoeste 26 Sudoeste 0 -- -- 53
2019-05-27 14:00:00 30.2 11 Este 39 Nordeste 0 -- -- 38
2019-05-27 13:00:00 29.9 21 Nordeste 40 Este 0 -- -- 27
2019-05-27 12:00:00 30.1 11 Nordeste 35 Noroeste 0 -- -- 27
2019-05-27 11:00:00 28 12 Este 30 Norte 0 -- -- 50
2019-05-27 10:00:00 25.5 15 Nordeste 32 Nordeste 0 -- -- 46
2019-05-27 09:00:00 24 16 Nordeste 26 Nordeste 0 -- -- 46
2019-05-27 08:00:00 20.5 13 Nordeste 23 Nordeste 0 -- -- 58
2019-05-27 07:00:00 18.6 11 Nordeste 20 Nordeste 0 -- -- 66
2019-05-27 06:00:00 16 3 Norte 9 Nordeste 0 -- -- 92
2019-05-27 05:00:00 16.8 5 Noroeste 9 Noroeste 0 -- -- 92
2019-05-27 04:00:00 17.3 3 Sudeste 13 Sur 0 -- -- 92
2019-05-27 03:00:00 18.7 6 Sudoeste 13 Sur 0 -- -- 90
2019-05-27 02:00:00 17.7 7 Sur 10 Sur 0 -- -- 90
2019-05-27 01:00:00 18.5 5 Sur 14 Norte 0 -- -- 86
2019-05-27 00:00:00 19.4 6 Norte 15 Nordeste 0 -- -- 77
2019-05-26 23:00:00 19.6 6 Sur 23 Sudoeste 0 -- -- 82
2019-05-26 22:00:00 19.4 4 Sur 16 Sur 0 -- -- 78
2019-05-26 21:00:00 20.7 7 Sur 20 Sudoeste 0 -- -- 73
2019-05-26 20:00:00 23.8 4 Sudeste 21 Sur 0 -- -- 61
2019-05-26 19:00:00 24 11 Sur 27 Sudoeste 0 -- -- 60
2019-05-26 18:00:00 24.8 18 Sur 24 Sur 0 -- -- 59
2019-05-26 17:00:00 25.4 13 Sur 31 Sudoeste 0 -- -- 59
2019-05-26 16:00:00 25.5 18 Sudoeste 30 Sur 0 -- -- 58
2019-05-26 15:00:00 25.6 12 Sur 37 Nordeste 0 -- -- 59
2019-05-26 14:00:00 26 14 Sur 33 Sudeste 0 -- -- 57
2019-05-26 13:00:00 26.6 8 Sudoeste 27 Este 0 -- -- 54
2019-05-26 12:00:00 25.1 10 Sudeste 23 Sur 0 -- -- 60
2019-05-26 11:00:00 23.7 13 Sudoeste 27 Sudoeste 0 -- -- 63
2019-05-26 10:00:00 22.4 17 Sudoeste 24 Sudoeste 0 -- -- 63
2019-05-26 09:00:00 20.7 5 Oeste 11 Noroeste 0 -- -- 64
2019-05-26 08:00:00 17.9 3 Norte 24 Norte 0 -- -- 76
2019-05-26 07:00:00 18.4 12 Nordeste 21 Norte 0 -- -- 69
2019-05-26 06:00:00 17.9 6 Norte 22 Nordeste 0 -- -- 73
2019-05-26 05:00:00 17.6 9 Norte 18 Norte 0 -- -- 75
2019-05-26 04:00:00 17.9 7 Norte 33 Nordeste 0 -- -- 67
2019-05-26 03:00:00 18.6 15 Nordeste 31 Norte 0 -- -- 65
2019-05-26 02:00:00 19 12 Norte 27 Norte 0 -- -- 64
2019-05-26 01:00:00 19 10 Norte 29 Nordeste 0 -- -- 67
2019-05-26 00:00:00 19.3 19 Nordeste 35 Nordeste 0 -- -- 66
2019-05-25 23:00:00 19.5 15 Nordeste 32 Nordeste 0 -- -- 65
2019-05-25 22:00:00 19.7 15 Nordeste 26 Nordeste 0 -- -- 61
2019-05-25 21:00:00 20.5 5 Norte 41 Nordeste 0 -- -- 69
2019-05-25 20:00:00 21.9 20 Nordeste 48 Norte 0 -- -- 59
2019-05-25 19:00:00 23.1 28 Nordeste 51 Nordeste 0 -- -- 58
2019-05-25 18:00:00 24.2 28 Nordeste 49 Nordeste 0 -- -- 53
2019-05-25 17:00:00 24.7 27 Nordeste 46 Nordeste 0 -- -- 52
2019-05-25 16:00:00 25.1 28 Nordeste 52 Norte 0 -- -- 54
2019-05-25 15:00:00 24.5 28 Nordeste 53 Nordeste 0 -- -- 59
2019-05-25 14:00:00 23.5 35 Nordeste 60 Nordeste 0 -- -- 60
2019-05-25 13:00:00 23.6 36 Nordeste 65 Norte 0 -- -- 62
2019-05-25 12:00:00 23.6 31 Nordeste 66 Nordeste 0 -- -- 61
2019-05-25 11:00:00 22.1 33 Nordeste 57 Nordeste 0 -- -- 65
2019-05-25 10:00:00 21.4 27 Nordeste 53 Nordeste 0 -- -- 70
2019-05-25 09:00:00 20.6 21 Nordeste 55 Nordeste 0 -- -- 72
2019-05-25 08:00:00 18.9 21 Nordeste 49 Norte 0 -- -- 78
2019-05-25 07:00:00 18.7 23 Nordeste 54 Nordeste 0 -- -- 77
2019-05-25 06:00:00 18.7 26 Nordeste 51 Nordeste 0 -- -- 76
2019-05-25 05:00:00 19 28 Nordeste 51 Nordeste 0 -- -- 72
2019-05-25 04:00:00 19.2 29 Nordeste 52 Norte 0 -- -- 67
2019-05-25 03:00:00 19.8 23 Nordeste 41 Nordeste 0 -- -- 58
2019-05-25 02:00:00 19.7 17 Nordeste 48 Nordeste 0 -- -- 55
2019-05-25 01:00:00 19.5 29 Nordeste 48 Nordeste 0 -- -- 61
2019-05-25 00:00:00 19.7 32 Nordeste 59 Nordeste 0 -- -- 66
2019-05-24 23:00:00 20.4 30 Nordeste 50 Nordeste 0 -- -- 63
2019-05-24 22:00:00 21.4 24 Nordeste 50 Nordeste 0 -- -- 56
2019-05-24 21:00:00 22 27 Nordeste 49 Nordeste 0 -- -- 51
2019-05-24 20:00:00 24.9 30 Nordeste 55 Nordeste 0 -- -- 34
2019-05-24 19:00:00 25.7 35 Nordeste 56 Nordeste 0 -- -- 37
2019-05-24 18:00:00 26.6 39 Nordeste 58 Nordeste 0 -- -- 39
2019-05-24 17:00:00 27.9 31 Nordeste 58 Nordeste 0 -- -- 36
2019-05-24 16:00:00 28.6 33 Nordeste 61 Nordeste 0 -- -- 34
2019-05-24 15:00:00 28.5 36 Nordeste 59 Nordeste 0 -- -- 36
2019-05-24 14:00:00 28.1 39 Nordeste 64 Nordeste 0 -- -- 36
2019-05-24 13:00:00 26.8 40 Nordeste 65 Norte 0 -- -- 38
2019-05-24 12:00:00 26.3 40 Nordeste 63 Nordeste 0 -- -- 37
2019-05-24 11:00:00 26 35 Nordeste 55 Norte 0 -- -- 41
2019-05-24 10:00:00 24.3 33 Nordeste 57 Nordeste 0 -- -- 44
2019-05-24 09:00:00 23.6 29 Nordeste 49 Norte 0 -- -- 43
2019-05-24 08:00:00 22.7 24 Nordeste 46 Norte 0 -- -- 44
2019-05-24 07:00:00 18.3 5 Norte 18 Noroeste 0 -- -- 69
2019-05-24 06:00:00 18.4 6 Noroeste 27 Norte 0 -- -- 69
2019-05-24 05:00:00 18.2 7 Sudeste 23 Nordeste 0 -- -- 74
2019-05-24 04:00:00 18.6 9 Sur 27 Nordeste 0 -- -- 82
2019-05-24 03:00:00 20.8 18 Norte 37 Nordeste 0 -- -- 48
2019-05-24 02:00:00 22.6 19 Nordeste 35 Nordeste 0 -- -- 31
2019-05-24 01:00:00 23.5 20 Nordeste 39 Nordeste 0 -- -- 26
2019-05-24 00:00:00 22.3 21 Nordeste 42 Norte 0 -- -- 40
2019-05-23 23:00:00 19.6 26 Nordeste 54 Nordeste 0 -- -- 65
2019-05-23 22:00:00 20.2 29 Nordeste 57 Nordeste 0 -- -- 59
2019-05-23 21:00:00 20.3 33 Nordeste 51 Nordeste 0 -- -- 61
2019-05-23 20:00:00 22.2 24 Norte 53 Nordeste 0 -- -- 58
2019-05-23 19:00:00 23.6 6 Sudoeste 49 Nordeste 0 -- -- 62
2019-05-23 18:00:00 24.4 34 Nordeste 62 Nordeste 0 -- -- 51
2019-05-23 17:00:00 24.7 40 Nordeste 62 Nordeste 0 -- -- 48
2019-05-23 16:00:00 25.5 37 Nordeste 70 Nordeste 0 -- -- 47
2019-05-23 15:00:00 25.1 35 Nordeste 64 Nordeste 0 -- -- 51
2019-05-23 14:00:00 24.7 33 Nordeste 67 Nordeste 0 -- -- 54
2019-05-23 13:00:00 24.3 42 Nordeste 69 Nordeste 0 -- -- 54
2019-05-23 12:00:00 23.7 44 Nordeste 69 Nordeste 0 -- -- 51
2019-05-23 11:00:00 23 36 Nordeste 64 Norte 0 -- -- 53
2019-05-23 10:00:00 21.9 35 Norte 64 Nordeste 0 -- -- 54
2019-05-23 09:00:00 20.6 39 Nordeste 67 Nordeste 0 -- -- 60
2019-05-23 08:00:00 19.7 35 Nordeste 63 Norte 0 -- -- 63
2019-05-23 07:00:00 19.6 27 Norte 71 Norte 0 -- -- 61
2019-05-23 06:00:00 19.3 35 Norte 64 Norte 0 -- -- 63
2019-05-23 05:00:00 19.5 40 Norte 61 Norte 0 -- -- 60
2019-05-23 04:00:00 19.3 18 Norte 51 Norte 0 -- -- 64
2019-05-23 03:00:00 19.8 13 Norte 60 Nordeste 0 -- -- 66
2019-05-23 02:00:00 19.8 35 Norte 55 Norte 0 -- -- 62
2019-05-23 01:00:00 20.2 18 Norte 58 Norte 0 -- -- 61
2019-05-23 00:00:00 20.2 32 Norte 52 Norte 0 -- -- 61
2019-05-22 23:00:00 20.2 14 Norte 50 Norte 0 -- -- 66
2019-05-22 22:00:00 20.4 33 Norte 51 Norte 0 -- -- 61
2019-05-22 21:00:00 20.5 28 Norte 49 Norte 0 -- -- 65
2019-05-22 20:00:00 22.8 19 Norte 57 Norte 0 -- -- 58
2019-05-22 19:00:00 23.8 30 Nordeste 64 Norte 0 -- -- 56
2019-05-22 18:00:00 24.1 36 Norte 67 Nordeste 0 -- -- 53
2019-05-22 17:00:00 24.6 31 Nordeste 64 Norte 0 -- -- 52
2019-05-22 16:00:00 25.1 28 Norte 53 Norte 0 -- -- 51
2019-05-22 15:00:00 24.8 35 Nordeste 57 Norte 0 -- -- 51
2019-05-22 14:00:00 25 31 Nordeste 53 Nordeste 0 -- -- 51
2019-05-22 13:00:00 24.8 30 Nordeste 50 Nordeste 0 -- -- 49
2019-05-22 12:00:00 23.5 26 Nordeste 53 Nordeste 0 -- -- 58
2019-05-22 11:00:00 22.9 30 Nordeste 55 Nordeste 0 -- -- 57
2019-05-22 10:00:00 21.9 35 Nordeste 54 Nordeste 0 -- -- 60
2019-05-22 09:00:00 20.6 28 Nordeste 51 Nordeste 0 -- -- 66
2019-05-22 08:00:00 19.8 24 Nordeste 50 Norte 0 -- -- 68
2019-05-22 07:00:00 19.2 22 Norte 50 Norte 0 -- -- 72
2019-05-22 06:00:00 19.9 23 Norte 49 Nordeste 0 -- -- 61
2019-05-22 05:00:00 19.8 22 Norte 51 Norte 0 -- -- 59
2019-05-22 04:00:00 19.1 26 Norte 42 Norte 0 -- -- 68
2019-05-22 03:00:00 19.2 8 Noroeste 37 Norte 0 -- -- 73
2019-05-22 02:00:00 19.2 13 Norte 42 Norte 0 -- -- 67
2019-05-22 01:00:00 19.2 22 Norte 41 Nordeste 0 -- -- 71
2019-05-22 00:00:00 20.3 30 Norte 50 Norte 0 -- -- 59
2019-05-21 23:00:00 19.3 23 Norte 38 Nordeste 0 -- -- 68
2019-05-21 22:00:00 20 19 Norte 44 Norte 0 -- -- 66
2019-05-21 21:00:00 20.3 21 Norte 43 Norte 0 -- -- 62
2019-05-21 20:00:00 21.4 28 Nordeste 48 Nordeste 0 -- -- 58
2019-05-21 19:00:00 22.1 27 Nordeste 53 Nordeste 0 -- -- 56
2019-05-21 18:00:00 24 24 Norte 43 Nordeste 0 -- -- 49
2019-05-21 17:00:00 23.6 14 Noroeste 50 Noroeste 0 -- -- 50
2019-05-21 16:00:00 24.4 27 Nordeste 53 Nordeste 0 -- -- 53
2019-05-21 15:00:00 24.2 32 Nordeste 57 Nordeste 0 -- -- 52
2019-05-21 14:00:00 24.1 31 Nordeste 53 Nordeste 0 -- -- 51
2019-05-21 13:00:00 23.6 30 Nordeste 53 Nordeste 0 -- -- 53
2019-05-21 12:00:00 23 26 Nordeste 46 Nordeste 0 -- -- 56
2019-05-21 11:00:00 22.3 25 Nordeste 40 Nordeste 0 -- -- 59
2019-05-21 10:00:00 20.7 22 Nordeste 44 Nordeste 0 -- -- 63
2019-05-21 09:00:00 19.1 15 Nordeste 42 Nordeste 0 -- -- 69
2019-05-21 08:00:00 18.4 23 Nordeste 48 Nordeste 0 -- -- 70
2019-05-21 07:00:00 18.2 22 Nordeste 38 Nordeste 0 -- -- 74
2019-05-21 06:00:00 19 21 Norte 43 Norte 0 -- -- 66
2019-05-21 05:00:00 18.3 19 Norte 37 Norte 0 -- -- 66
2019-05-21 04:00:00 18.9 22 Norte 55 Norte 0 -- -- 63
2019-05-21 03:00:00 19.1 26 Norte 44 Norte 0 -- -- 61
2019-05-21 02:00:00 19.1 21 Norte 40 Nordeste 0 -- -- 62
2019-05-21 01:00:00 19.1 17 Nordeste 35 Nordeste 0 -- -- 61
2019-05-21 00:00:00 19.4 21 Norte 44 Nordeste 0 -- -- 61